Time;durP1;ratioP1;P1;durP2;ratioP2;P2;SDS_P1;SDS_P2;PMS_P1;PMS_P2;Temp;Humidity;BMP_temperature;BMP_pressure;BME280_temperature;BME280_humidity;BME280_pressure;Samples;Min_cycle;Max_cycle;Signal;HPM_P1;HPM_P2
2024/03/01 00:01:24;;;;;;;6.07;1.00;;;;;;;;;;5076355;28;20044;-81
2024/03/01 00:03:55;;;;;;;2.38;1.30;;;;;;;;;;5070924;28;20049;-79
2024/03/01 00:06:25;;;;;;;5.57;1.20;;;;;;;;;;5070401;28;20051;-81
2024/03/01 00:08:55;;;;;;;2.00;1.30;;;;;;;;;;5069706;28;20502;-78
2024/03/01 00:11:27;;;;;;;4.95;0.90;;;;;;;;;;5070555;28;20084;-79
2024/03/01 00:13:57;;;;;;;3.95;1.15;;;;;;;;;;5069913;28;20051;-83
2024/03/01 00:16:27;;;;;;;2.22;1.08;;;;;;;;;;5070798;28;20490;-83
2024/03/01 00:18:57;;;;;;;5.60;1.60;;;;;;;;;;5070692;28;20047;-83
2024/03/01 00:21:29;;;;;;;9.35;1.45;;;;;;;;;;5070724;28;20048;-83
2024/03/01 00:24:01;;;;;;;8.63;1.73;;;;;;;;;;5070828;28;20049;-81
2024/03/01 00:26:32;;;;;;;5.63;1.77;;;;;;;;;;5070838;28;20052;-79
2024/03/01 00:29:03;;;;;;;7.20;2.50;;;;;;;;;;5070628;28;20052;-79
2024/03/01 00:31:34;;;;;;;4.65;1.60;;;;;;;;;;5069935;28;20056;-80
2024/03/01 00:34:06;;;;;;;9.48;1.40;;;;;;;;;;5070903;28;20048;-80
2024/03/01 00:36:36;;;;;;;4.50;1.25;;;;;;;;;;5070423;28;20045;-79
2024/03/01 00:39:07;;;;;;;7.78;1.15;;;;;;;;;;5070730;28;20041;-79
2024/03/01 00:41:37;;;;;;;8.55;2.10;;;;;;;;;;5070370;28;20487;-84
2024/03/01 00:44:09;;;;;;;5.72;2.42;;;;;;;;;;5069682;28;20051;-80
2024/03/01 00:46:39;;;;;;;7.07;1.80;;;;;;;;;;5070902;28;20398;-79
2024/03/01 00:49:09;;;;;;;6.40;1.73;;;;;;;;;;5070478;28;20522;-84
2024/03/01 00:51:39;;;;;;;5.43;1.95;;;;;;;;;;5070265;28;20037;-80
2024/03/01 00:54:10;;;;;;;9.70;1.98;;;;;;;;;;5070609;28;20044;-80
2024/03/01 00:56:40;;;;;;;9.48;2.20;;;;;;;;;;5079912;28;20410;-79
2024/03/01 00:59:10;;;;;;;4.32;2.20;;;;;;;;;;5081022;28;20405;-82
2024/03/01 01:01:39;;;;;;;5.57;1.67;;;;;;;;;;5080457;28;20509;-80
2024/03/01 01:04:10;;;;;;;8.85;1.65;;;;;;;;;;5075696;28;20505;-80
2024/03/01 01:06:40;;;;;;;6.50;1.38;;;;;;;;;;5062114;28;20076;-81
2024/03/01 01:09:10;;;;;;;5.78;1.05;;;;;;;;;;5078658;28;20039;-83
2024/03/01 01:11:41;;;;;;;6.45;2.05;;;;;;;;;;5057642;28;20422;-81
2024/03/01 01:14:11;;;;;;;6.72;2.10;;;;;;;;;;5052479;28;20410;-79
2024/03/01 01:16:43;;;;;;;14.95;1.77;;;;;;;;;;5051638;28;20052;-81
2024/03/01 01:19:16;;;;;;;5.93;2.42;;;;;;;;;;5070428;28;20070;-80
2024/03/01 01:21:46;;;;;;;10.20;1.95;;;;;;;;;;5069461;28;20052;-80
2024/03/01 01:24:17;;;;;;;7.05;2.00;;;;;;;;;;5070152;28;20040;-80
2024/03/01 01:26:48;;;;;;;4.72;1.50;;;;;;;;;;5070357;28;20052;-80
2024/03/01 01:29:18;;;;;;;6.63;1.33;;;;;;;;;;5069595;28;20040;-82
2024/03/01 01:31:48;;;;;;;7.45;1.50;;;;;;;;;;5069850;28;20064;-80
2024/03/01 01:34:17;;;;;;;5.82;1.63;;;;;;;;;;5069981;28;20044;-80
2024/03/01 01:36:50;;;;;;;4.20;1.25;;;;;;;;;;5070342;28;20048;-80
2024/03/01 01:39:20;;;;;;;7.47;1.30;;;;;;;;;;5070096;28;20443;-83
2024/03/01 01:41:51;;;;;;;8.57;1.42;;;;;;;;;;5070407;28;20053;-79
2024/03/01 01:44:21;;;;;;;5.63;1.65;;;;;;;;;;5069280;28;20043;-82
2024/03/01 01:46:51;;;;;;;4.15;1.15;;;;;;;;;;5070254;28;20033;-79
2024/03/01 01:49:27;;;;;;;5.13;1.52;;;;;;;;;;5069868;28;20041;-80
2024/03/01 01:51:59;;;;;;;4.05;1.65;;;;;;;;;;5069945;28;20041;-80
2024/03/01 01:54:31;;;;;;;3.50;1.35;;;;;;;;;;5069919;28;20045;-83
2024/03/01 01:57:01;;;;;;;4.95;1.10;;;;;;;;;;5072653;28;20051;-80
2024/03/01 01:59:32;;;;;;;9.00;1.80;;;;;;;;;;5073156;28;20647;-80
2024/03/01 02:02:04;;;;;;;4.43;1.27;;;;;;;;;;5067206;28;20498;-80
2024/03/01 02:04:33;;;;;;;;;;;;;;;;;;5095860;28;20063;-80
2024/03/01 02:07:04;;;;;;;25.00;2.40;;;;;;;;;;5095250;28;19920;-80
2024/03/01 02:09:34;;;;;;;5.03;1.40;;;;;;;;;;5095049;28;20047;-83
2024/03/01 02:12:04;;;;;;;4.85;1.77;;;;;;;;;;5095025;28;20228;-80
2024/03/01 02:14:35;;;;;;;11.63;1.80;;;;;;;;;;5095362;28;20052;-81
2024/03/01 02:17:05;;;;;;;5.53;1.60;;;;;;;;;;5094865;28;20051;-82
2024/03/01 02:19:35;;;;;;;6.70;1.33;;;;;;;;;;5094993;28;20101;-84
2024/03/01 02:22:11;;;;;;;7.20;1.60;;;;;;;;;;5094448;28;20499;-79
2024/03/01 02:24:42;;;;;;;4.78;1.35;;;;;;;;;;5095136;28;20390;-82
2024/03/01 02:27:13;;;;;;;2.63;1.20;;;;;;;;;;5094910;28;20048;-81
2024/03/01 02:29:42;;;;;;;7.50;1.50;;;;;;;;;;5094852;28;20036;-80
2024/03/01 02:32:14;;;;;;;15.75;1.90;;;;;;;;;;5094344;28;20059;-80
2024/03/01 02:34:46;;;;;;;7.07;1.40;;;;;;;;;;5094475;28;20410;-80
2024/03/01 02:37:17;;;;;;;7.03;1.42;;;;;;;;;;5094907;28;20044;-80
2024/03/01 02:39:47;;;;;;;5.80;1.45;;;;;;;;;;5094661;28;20043;-80
2024/03/01 02:42:17;;;;;;;7.07;1.67;;;;;;;;;;5094455;28;20040;-80
2024/03/01 02:44:47;;;;;;;4.18;1.95;;;;;;;;;;5094737;28;20414;-79
2024/03/01 02:47:18;;;;;;;9.48;1.55;;;;;;;;;;5095017;28;20044;-81
2024/03/01 02:49:48;;;;;;;6.57;1.65;;;;;;;;;;5095394;28;20382;-79
2024/03/01 02:52:19;;;;;;;11.90;1.80;;;;;;;;;;5091686;28;20048;-79
2024/03/01 02:54:49;;;;;;;5.80;1.60;;;;;;;;;;5075662;28;20052;-80
2024/03/01 02:57:19;;;;;;;3.42;1.33;;;;;;;;;;5091376;28;20505;-80
2024/03/01 02:59:52;;;;;;;9.75;1.65;;;;;;;;;;5091331;28;20067;-81
2024/03/01 03:02:22;;;;;;;6.50;1.65;;;;;;;;;;5091660;28;20059;-79
2024/03/01 03:04:53;;;;;;;4.53;1.33;;;;;;;;;;5091244;28;20430;-79
2024/03/01 03:07:25;;;;;;;6.25;1.50;;;;;;;;;;5091136;28;20052;-79
2024/03/01 03:09:55;;;;;;;5.97;1.40;;;;;;;;;;5092939;28;20505;-83
2024/03/01 03:12:26;;;;;;;8.07;1.33;;;;;;;;;;5093369;28;20078;-80
2024/03/01 03:14:57;;;;;;;4.32;1.25;;;;;;;;;;5073089;28;20044;-80
2024/03/01 03:17:28;;;;;;;10.45;1.75;;;;;;;;;;5091782;28;20044;-80
2024/03/01 03:19:58;;;;;;;7.78;2.42;;;;;;;;;;5090435;28;20052;-79
2024/03/01 03:22:28;;;;;;;6.05;1.60;;;;;;;;;;5093712;28;20044;-79
2024/03/01 03:24:59;;;;;;;;;;;;;;;;;;5092352;28;20048;-79
2024/03/01 03:27:30;;;;;;;6.55;1.50;;;;;;;;;;5090725;28;19919;-80
2024/03/01 03:30:02;;;;;;;6.70;1.67;;;;;;;;;;5089963;28;20048;-82
2024/03/01 03:32:34;;;;;;;6.68;1.52;;;;;;;;;;5090556;28;20063;-82
2024/03/01 03:35:05;;;;;;;4.38;1.73;;;;;;;;;;5090417;28;20063;-81
2024/03/01 03:37:35;;;;;;;7.18;1.60;;;;;;;;;;5090396;28;20055;-84
2024/03/01 03:40:14;;;;;;;11.93;1.90;;;;;;;;;;5090173;28;20078;-80
2024/03/01 03:42:44;;;;;;;;;;;;;;;;;;5091595;28;20058;-78
2024/03/01 03:45:15;;;;;;;6.70;1.80;;;;;;;;;;5092231;28;19920;-81
2024/03/01 03:47:46;;;;;;;5.80;1.67;;;;;;;;;;5092071;28;20502;-80
2024/03/01 03:50:19;;;;;;;5.22;1.50;;;;;;;;;;5091394;28;20064;-80
2024/03/01 03:52:49;;;;;;;6.13;1.60;;;;;;;;;;5092251;28;20044;-81
2024/03/01 03:55:20;;;;;;;8.82;1.73;;;;;;;;;;5092056;28;20059;-81
2024/03/01 03:57:50;;;;;;;12.98;1.60;;;;;;;;;;5092039;28;20048;-81
2024/03/01 04:00:24;;;;;;;4.78;1.50;;;;;;;;;;5093247;28;20051;-81
2024/03/01 04:02:56;;;;;;;5.82;1.52;;;;;;;;;;5092154;28;20052;-81
2024/03/01 04:05:29;;;;;;;5.88;1.83;;;;;;;;;;5074241;28;20056;-80
2024/03/01 04:07:59;;;;;;;4.88;2.13;;;;;;;;;;5091788;28;20421;-79
2024/03/01 04:10:30;;;;;;;6.00;1.80;;;;;;;;;;5092049;28;20059;-81
2024/03/01 04:13:01;;;;;;;10.52;2.92;;;;;;;;;;5091806;28;20048;-80
2024/03/01 04:15:31;;;;;;;4.22;2.03;;;;;;;;;;5092484;28;20056;-80
2024/03/01 04:18:02;;;;;;;12.15;3.08;;;;;;;;;;5091519;28;20383;-81
2024/03/01 04:20:34;;;;;;;9.68;2.05;;;;;;;;;;5091696;28;20418;-81
2024/03/01 04:23:05;;;;;;;6.25;2.05;;;;;;;;;;5091779;28;20498;-82
2024/03/01 04:25:36;;;;;;;7.43;2.60;;;;;;;;;;5091782;28;20056;-84
2024/03/01 04:28:06;;;;;;;6.40;2.67;;;;;;;;;;5091483;28;20052;-80
2024/03/01 04:30:36;;;;;;;7.38;2.17;;;;;;;;;;5091835;28;20055;-82
2024/03/01 04:33:07;;;;;;;13.27;2.50;;;;;;;;;;5091501;28;20063;-82
2024/03/01 04:35:37;;;;;;;10.10;2.05;;;;;;;;;;5092762;28;20043;-80
2024/03/01 04:38:07;;;;;;;5.15;2.10;;;;;;;;;;5091901;28;20056;-82
2024/03/01 04:40:41;;;;;;;8.10;2.80;;;;;;;;;;5074098;28;20048;-83
2024/03/01 04:43:12;;;;;;;4.13;1.92;;;;;;;;;;5091898;28;20063;-81
2024/03/01 04:45:44;;;;;;;10.07;1.98;;;;;;;;;;5091497;28;20379;-80
2024/03/01 04:48:14;;;;;;;10.00;2.17;;;;;;;;;;5092576;28;20043;-81
2024/03/01 04:50:44;;;;;;;8.68;2.40;;;;;;;;;;5091846;28;20414;-82
2024/03/01 04:53:13;;;;;;;7.03;2.08;;;;;;;;;;5091516;28;20074;-83
2024/03/01 04:55:43;;;;;;;9.18;2.22;;;;;;;;;;5091600;28;20498;-82
2024/03/01 04:58:13;;;;;;;7.88;2.08;;;;;;;;;;5091090;28;20056;-81
2024/03/01 05:00:45;;;;;;;;;;;;;;;;;;5086496;28;20040;-84
2024/03/01 05:03:16;;;;;;;7.75;2.30;;;;;;;;;;5057535;28;19924;-82
2024/03/01 05:05:47;;;;;;;6.03;2.80;;;;;;;;;;5071665;28;20053;-82
2024/03/01 05:08:19;;;;;;;9.05;2.38;;;;;;;;;;5081130;28;20055;-81
2024/03/01 05:10:52;;;;;;;7.30;3.05;;;;;;;;;;5091466;28;20516;-82
2024/03/01 05:13:27;;;;;;;7.85;2.63;;;;;;;;;;5091391;28;20044;-85
2024/03/01 05:15:59;;;;;;;7.68;2.33;;;;;;;;;;5089928;28;20044;-80
2024/03/01 05:18:31;;;;;;;13.15;2.85;;;;;;;;;;5088195;28;20059;-81
2024/03/01 05:21:01;;;;;;;9.57;2.58;;;;;;;;;;5075432;28;20052;-84
2024/03/01 05:23:33;;;;;;;8.57;2.65;;;;;;;;;;5071248;28;20166;-81
2024/03/01 05:26:05;;;;;;;8.27;2.25;;;;;;;;;;5078749;28;20509;-82
2024/03/01 05:28:36;;;;;;;9.00;2.22;;;;;;;;;;5091161;28;20056;-81
2024/03/01 05:31:07;;;;;;;10.63;2.95;;;;;;;;;;5093075;28;20056;-81
2024/03/01 05:33:51;;;;;;;8.73;2.25;;;;;;;;;;5095191;28;20474;-80
2024/03/01 05:36:23;;;;;;;7.05;2.22;;;;;;;;;;5097447;28;20056;-81
2024/03/01 05:38:53;;;;;;;9.07;2.42;;;;;;;;;;5099817;28;20490;-81
2024/03/01 05:41:26;;;;;;;15.40;2.60;;;;;;;;;;5081457;28;20328;-81
2024/03/01 05:43:57;;;;;;;5.78;2.20;;;;;;;;;;5077932;28;20052;-80
2024/03/01 05:46:31;;;;;;;6.32;2.25;;;;;;;;;;5070333;28;20056;-77
2024/03/01 05:49:03;;;;;;;11.18;2.33;;;;;;;;;;5088730;28;20096;-77
2024/03/01 05:51:33;;;;;;;6.45;1.80;;;;;;;;;;5087589;28;20056;-76
2024/03/01 05:54:05;;;;;;;9.07;2.20;;;;;;;;;;5087655;28;20056;-77
2024/03/01 05:56:35;;;;;;;9.30;2.00;;;;;;;;;;5083489;28;20044;-82
2024/03/01 05:59:06;;;;;;;8.85;2.60;;;;;;;;;;5075549;28;20056;-80
2024/03/01 06:01:36;;;;;;;9.57;2.45;;;;;;;;;;5073809;28;20056;-81
2024/03/01 06:04:10;;;;;;;7.68;2.33;;;;;;;;;;5074999;28;20146;-82
2024/03/01 06:06:41;;;;;;;5.78;1.92;;;;;;;;;;5074420;28;20049;-84
2024/03/01 06:09:12;;;;;;;10.57;2.50;;;;;;;;;;5073862;28;20056;-79
2024/03/01 06:11:45;;;;;;;9.68;2.83;;;;;;;;;;5074266;28;20396;-83
2024/03/01 06:14:18;;;;;;;6.53;2.03;;;;;;;;;;5075114;28;20048;-79
2024/03/01 06:16:51;;;;;;;6.35;2.72;;;;;;;;;;5074156;28;20406;-79
2024/03/01 06:19:22;;;;;;;8.57;2.53;;;;;;;;;;5074362;28;20056;-80
2024/03/01 06:21:58;;;;;;;9.77;2.78;;;;;;;;;;5073798;28;20053;-80
2024/03/01 06:24:29;;;;;;;8.45;2.38;;;;;;;;;;5073899;28;20510;-81
2024/03/01 06:27:00;;;;;;;5.68;2.40;;;;;;;;;;5074180;28;20059;-80
2024/03/01 06:29:31;;;;;;;7.80;2.33;;;;;;;;;;5073760;28;20529;-84
2024/03/01 06:32:05;;;;;;;13.02;3.30;;;;;;;;;;5073850;28;20525;-79
2024/03/01 06:34:35;;;;;;;8.98;2.50;;;;;;;;;;5073625;28;20047;-81
2024/03/01 06:37:05;;;;;;;9.77;2.40;;;;;;;;;;5073424;28;20115;-82
2024/03/01 06:39:38;;;;;;;9.38;2.67;;;;;;;;;;5073505;28;20446;-78
2024/03/01 06:42:08;;;;;;;8.57;2.40;;;;;;;;;;5055823;28;20053;-83
2024/03/01 06:44:39;;;;;;;5.97;2.47;;;;;;;;;;5073404;28;20056;-83
2024/03/01 06:47:09;;;;;;;7.35;2.20;;;;;;;;;;5073115;28;20059;-81
2024/03/01 06:49:47;;;;;;;;;;;;;;;;;;5073808;28;20063;-80
2024/03/01 06:52:19;;;;;;;6.55;2.40;;;;;;;;;;5073679;28;19924;-81
2024/03/01 06:54:50;;;;;;;9.43;2.50;;;;;;;;;;5073809;28;20049;-80
2024/03/01 06:57:21;;;;;;;8.65;2.60;;;;;;;;;;5073502;28;20056;-81
2024/03/01 06:59:53;;;;;;;12.00;2.85;;;;;;;;;;5073752;28;20048;-79
2024/03/01 07:02:24;;;;;;;5.72;2.47;;;;;;;;;;5073506;28;20052;-81
2024/03/01 07:04:55;;;;;;;9.05;2.33;;;;;;;;;;5074179;28;20045;-79
2024/03/01 07:07:25;;;;;;;9.35;2.70;;;;;;;;;;5073355;28;20056;-82
2024/03/01 07:09:56;;;;;;;7.30;2.25;;;;;;;;;;5073031;28;20056;-80
2024/03/01 07:12:26;;;;;;;6.07;2.38;;;;;;;;;;5072843;28;20121;-81
2024/03/01 07:14:57;;;;;;;6.45;2.53;;;;;;;;;;5073217;28;20418;-82
2024/03/01 07:17:27;;;;;;;6.18;2.47;;;;;;;;;;5073570;28;20060;-79
2024/03/01 07:20:01;;;;;;;9.57;2.92;;;;;;;;;;5072392;28;20044;-82
2024/03/01 07:22:32;;;;;;;12.70;3.00;;;;;;;;;;5072635;28;20052;-81
2024/03/01 07:25:04;;;;;;;8.43;2.40;;;;;;;;;;5072951;28;20059;-80
2024/03/01 07:27:35;;;;;;;6.10;2.10;;;;;;;;;;5055227;28;20498;-82
2024/03/01 07:30:09;;;;;;;10.80;2.60;;;;;;;;;;5072384;28;20189;-82
2024/03/01 07:32:41;;;;;;;8.38;2.42;;;;;;;;;;5072349;28;20052;-80
2024/03/01 07:35:12;;;;;;;10.77;3.00;;;;;;;;;;5072641;28;20509;-83
2024/03/01 07:37:42;;;;;;;11.05;3.13;;;;;;;;;;5072605;28;20052;-78
2024/03/01 07:40:14;;;;;;;7.55;2.40;;;;;;;;;;5072604;28;20044;-83
2024/03/01 07:42:44;;;;;;;6.53;3.38;;;;;;;;;;5072375;28;20411;-80
2024/03/01 07:45:14;;;;;;;9.48;2.50;;;;;;;;;;5073373;28;20051;-79
2024/03/01 07:47:45;;;;;;;8.45;2.53;;;;;;;;;;5072581;28;20055;-83
2024/03/01 07:50:16;;;;;;;7.15;2.55;;;;;;;;;;5071613;28;20411;-81
2024/03/01 07:52:47;;;;;;;8.07;2.53;;;;;;;;;;5071815;28;20051;-79
2024/03/01 07:55:17;;;;;;;8.73;2.40;;;;;;;;;;5071940;28;20064;-80
2024/03/01 07:57:48;;;;;;;10.65;3.40;;;;;;;;;;5073098;28;20048;-80
2024/03/01 08:00:22;;;;;;;8.10;2.40;;;;;;;;;;5072989;28;20522;-83
2024/03/01 08:03:09;;;;;;;6.65;2.80;;;;;;;;;;5071922;28;20063;-81
2024/03/01 08:05:40;;;;;;;7.57;2.85;;;;;;;;;;5072667;28;20055;-82
2024/03/01 08:08:11;;;;;;;5.60;2.40;;;;;;;;;;5071973;28;20048;-80
2024/03/01 08:10:44;;;;;;;6.05;2.85;;;;;;;;;;5071841;28;20143;-79
2024/03/01 08:13:18;;;;;;;11.15;3.13;;;;;;;;;;5072229;28;20048;-82
2024/03/01 08:15:48;;;;;;;8.82;2.80;;;;;;;;;;5071647;28;20056;-80
2024/03/01 08:18:24;;;;;;;5.68;2.65;;;;;;;;;;5071912;28;20044;-81
2024/03/01 08:21:00;;;;;;;5.78;2.60;;;;;;;;;;5072178;28;20059;-82
2024/03/01 08:23:39;;;;;;;10.93;2.97;;;;;;;;;;5072614;28;20045;-79
2024/03/01 08:26:23;;;;;;;6.55;2.35;;;;;;;;;;5072194;28;20052;-80
2024/03/01 08:28:53;;;;;;;4.78;2.45;;;;;;;;;;5071584;28;20053;-80
2024/03/01 08:31:27;;;;;;;6.75;2.58;;;;;;;;;;5076030;28;20048;-80
2024/03/01 08:34:06;;;;;;;5.10;2.63;;;;;;;;;;5080524;28;20518;-82
2024/03/01 08:36:39;;;;;;;6.88;2.45;;;;;;;;;;5071027;28;20059;-79
2024/03/01 08:39:16;;;;;;;8.50;3.10;;;;;;;;;;5071164;28;20048;-81
2024/03/01 08:41:52;;;;;;;7.97;3.03;;;;;;;;;;5071459;28;20052;-78
2024/03/01 08:44:33;;;;;;;5.47;2.63;;;;;;;;;;5072495;28;20041;-79
2024/03/01 08:47:06;;;;;;;9.00;2.80;;;;;;;;;;5071838;28;20056;-80
2024/03/01 08:49:44;;;;;;;13.07;2.92;;;;;;;;;;5072335;28;20051;-80
2024/03/01 08:52:21;;;;;;;5.30;2.50;;;;;;;;;;5082272;28;20056;-80
2024/03/01 08:54:56;;;;;;;9.73;3.10;;;;;;;;;;5089147;28;20048;-85
2024/03/01 08:57:28;;;;;;;5.57;2.35;;;;;;;;;;5091937;28;20033;-79
2024/03/01 08:59:58;;;;;;;12.88;4.50;;;;;;;;;;5091097;28;20055;-80
2024/03/01 09:02:48;;;;;;;19.05;5.50;;;;;;;;;;5091159;28;20059;-79
2024/03/01 09:05:21;;;;;;;30.67;9.20;;;;;;;;;;5094667;28;20032;-79
2024/03/01 09:07:52;;;;;;;35.72;10.13;;;;;;;;;;5095355;28;20055;-80
2024/03/01 09:10:35;;;;;;;37.45;10.93;;;;;;;;;;5093574;28;20501;-80
2024/03/01 09:13:09;;;;;;;31.75;9.13;;;;;;;;;;5095116;28;20063;-80
2024/03/01 09:15:40;;;;;;;32.90;10.50;;;;;;;;;;5095311;28;20056;-82
2024/03/01 09:18:38;;;;;;;26.60;7.90;;;;;;;;;;5094391;28;20055;-80
2024/03/01 09:21:39;;;;;;;33.15;8.05;;;;;;;;;;5095328;28;20051;-81
2024/03/01 09:24:12;;;;;;;27.40;7.25;;;;;;;;;;5094024;28;20413;-80
2024/03/01 09:26:44;;;;;;;21.92;7.13;;;;;;;;;;5088755;28;20049;-82
2024/03/01 09:29:34;;;;;;;23.80;7.65;;;;;;;;;;5072572;28;20048;-80
2024/03/01 09:32:06;;;;;;;31.10;7.63;;;;;;;;;;5054408;28;20067;-81
2024/03/01 09:34:40;;;;;;;24.08;7.07;;;;;;;;;;5074842;28;20040;-80
2024/03/01 09:37:21;;;;;;;31.85;7.45;;;;;;;;;;5057144;28;20064;-80
2024/03/01 09:39:51;;;;;;;28.08;8.60;;;;;;;;;;5073207;28;20059;-81
2024/03/01 09:42:39;;;;;;;40.90;11.15;;;;;;;;;;5074403;28;20416;-80
2024/03/01 09:45:29;;;;;;;44.55;11.38;;;;;;;;;;5075407;28;20052;-81
2024/03/01 09:48:36;;;;;;;40.38;10.23;;;;;;;;;;5074470;28;20052;-80
2024/03/01 09:51:34;;;;;;;39.15;10.15;;;;;;;;;;5026473;28;20056;-81
2024/03/01 09:54:33;;;;;;;41.90;9.93;;;;;;;;;;5075171;28;20437;-82
2024/03/01 09:57:29;;;;;;;33.45;8.68;;;;;;;;;;5075555;28;20051;-85
2024/03/01 10:00:07;;;;;;;33.97;10.13;;;;;;;;;;5075367;28;20055;-84
2024/03/01 10:02:49;;;;;;;37.28;10.40;;;;;;;;;;5075292;28;20037;-80
2024/03/01 10:05:45;;;;;;;43.03;11.07;;;;;;;;;;5075342;28;20039;-83
2024/03/01 10:08:44;;;;;;;37.90;11.30;;;;;;;;;;5075315;28;20052;-80
2024/03/01 10:11:35;;;;;;;40.63;12.60;;;;;;;;;;5075254;28;20398;-82
2024/03/01 10:14:20;;;;;;;40.35;11.63;;;;;;;;;;5075406;28;20509;-80
2024/03/01 10:17:03;;;;;;;43.38;12.40;;;;;;;;;;5074388;28;20037;-80
2024/03/01 10:20:02;;;;;;;47.13;12.63;;;;;;;;;;5073488;28;20044;-80
2024/03/01 10:22:47;;;;;;;49.55;13.35;;;;;;;;;;5073647;28;20033;-81
2024/03/01 10:25:51;;;;;;;49.42;13.23;;;;;;;;;;5073206;28;20044;-81
2024/03/01 10:28:34;;;;;;;56.10;15.20;;;;;;;;;;5086006;28;20044;-80
2024/03/01 10:31:38;;;;;;;54.03;14.52;;;;;;;;;;5056321;28;20490;-79
2024/03/01 10:34:34;;;;;;;45.85;12.98;;;;;;;;;;5074428;28;20047;-80
2024/03/01 10:37:17;;;;;;;44.72;12.93;;;;;;;;;;5074054;28;20045;-81
2024/03/01 10:40:03;;;;;;;48.50;12.98;;;;;;;;;;5073726;28;20044;-81
2024/03/01 10:42:37;;;;;;;36.15;12.68;;;;;;;;;;5077549;28;20032;-81
2024/03/01 10:45:23;;;;;;;37.17;11.98;;;;;;;;;;5087129;28;20036;-82
2024/03/01 10:47:55;;;;;;;37.53;11.88;;;;;;;;;;5081052;28;20040;-83
2024/03/01 10:50:31;;;;;;;35.28;12.23;;;;;;;;;;5079644;28;20040;-81
2024/03/01 10:53:14;;;;;;;32.85;12.00;;;;;;;;;;5065277;28;20119;-84
2024/03/01 10:55:53;;;;;;;30.83;12.70;;;;;;;;;;5084188;28;20398;-82
2024/03/01 10:58:29;;;;;;;35.67;12.38;;;;;;;;;;5083070;28;20044;-82
2024/03/01 11:01:25;;;;;;;33.35;11.95;;;;;;;;;;5091944;28;20036;-83
2024/03/01 11:04:14;;;;;;;29.52;11.32;;;;;;;;;;5072422;28;20060;-84
2024/03/01 11:07:14;;;;;;;35.30;13.15;;;;;;;;;;5093437;28;20040;-79
2024/03/01 11:09:59;;;;;;;38.45;13.88;;;;;;;;;;5075330;28;20040;-82
2024/03/01 11:12:42;;;;;;;33.78;13.80;;;;;;;;;;5082652;28;20102;-80
2024/03/01 11:15:17;;;;;;;38.65;13.38;;;;;;;;;;5093264;28;20047;-84
2024/03/01 11:17:52;;;;;;;34.17;12.93;;;;;;;;;;5093955;28;20055;-81
2024/03/01 11:20:52;;;;;;;34.50;12.40;;;;;;;;;;5059651;28;20052;-82
2024/03/01 11:23:40;;;;;;;29.20;11.18;;;;;;;;;;5072889;28;20040;-81
2024/03/01 11:26:26;;;;;;;25.55;9.93;;;;;;;;;;5075412;28;20517;-82
2024/03/01 11:28:59;;;;;;;27.48;10.73;;;;;;;;;;5081044;28;20048;-80
2024/03/01 11:31:30;;;;;;;21.83;9.60;;;;;;;;;;5091767;28;20407;-81
2024/03/01 11:34:30;;;;;;;21.05;9.25;;;;;;;;;;5075146;28;20048;-80
2024/03/01 11:37:18;;;;;;;21.98;8.52;;;;;;;;;;5075809;28;20036;-80
2024/03/01 11:39:59;;;;;;;21.30;8.45;;;;;;;;;;5073544;28;20399;-79
2024/03/01 11:42:56;;;;;;;13.43;6.20;;;;;;;;;;5090536;28;20044;-81
2024/03/01 11:45:47;;;;;;;14.90;6.93;;;;;;;;;;5086734;28;20040;-81
2024/03/01 11:48:42;;;;;;;16.60;6.43;;;;;;;;;;5086430;28;20055;-80
2024/03/01 11:51:27;;;;;;;12.68;5.90;;;;;;;;;;5073147;28;20040;-81
2024/03/01 11:54:31;;;;;;;15.18;5.78;;;;;;;;;;5072825;28;20040;-80
2024/03/01 11:57:19;;;;;;;10.13;5.40;;;;;;;;;;5080098;28;20036;-81
2024/03/01 12:00:21;;;;;;;10.50;4.55;;;;;;;;;;5087934;28;20047;-83
2024/03/01 12:03:06;;;;;;;9.95;4.55;;;;;;;;;;5071291;28;20418;-81
2024/03/01 12:06:08;;;;;;;11.95;4.50;;;;;;;;;;5092304;28;20047;-81
2024/03/01 12:09:08;;;;;;;6.88;4.00;;;;;;;;;;5085014;28;20037;-82
2024/03/01 12:12:09;;;;;;;9.70;4.57;;;;;;;;;;5083936;28;20493;-83
2024/03/01 12:15:00;;;;;;;11.98;4.57;;;;;;;;;;5093196;28;20039;-81
2024/03/01 12:17:54;;;;;;;9.25;4.18;;;;;;;;;;5090845;28;20043;-80
2024/03/01 12:20:26;;;;;;;9.73;4.30;;;;;;;;;;5066190;28;20063;-86
2024/03/01 12:23:44;;;;;;;9.85;4.25;;;;;;;;;;5072976;28;20040;-79
2024/03/01 12:26:17;;;;;;;8.43;4.20;;;;;;;;;;5068943;28;20426;-82
2024/03/01 12:29:24;;;;;;;7.22;2.97;;;;;;;;;;5078180;28;20040;-82
2024/03/01 12:32:03;;;;;;;6.65;2.88;;;;;;;;;;5091140;28;20064;-80
2024/03/01 12:35:04;;;;;;;8.88;2.17;;;;;;;;;;5071567;28;20040;-80
2024/03/01 12:38:12;;;;;;;12.48;2.88;;;;;;;;;;5069061;28;20533;-81
2024/03/01 12:41:13;;;;;;;6.47;2.53;;;;;;;;;;5071972;28;20487;-79
2024/03/01 12:44:23;;;;;;;3.63;1.98;;;;;;;;;;5072941;28;20044;-80
2024/03/01 12:47:27;;;;;;;4.15;2.33;;;;;;;;;;5074211;28;20040;-80
2024/03/01 12:50:05;;;;;;;3.72;2.20;;;;;;;;;;5075475;28;20045;-81
2024/03/01 12:52:50;;;;;;;6.55;2.22;;;;;;;;;;5084180;28;20048;-82
2024/03/01 12:55:53;;;;;;;5.38;2.28;;;;;;;;;;5093768;28;20040;-80
2024/03/01 12:58:45;;;;;;;4.10;2.30;;;;;;;;;;5034010;28;20061;-79
2024/03/01 13:01:35;;;;;;;4.78;2.15;;;;;;;;;;5076278;28;20040;-80
2024/03/01 13:04:42;;;;;;;6.03;2.10;;;;;;;;;;5092516;28;20040;-81
2024/03/01 13:07:13;;;;;;;;;;;;;;;;;;5096230;28;20051;-80
2024/03/01 13:09:53;;;;;;;4.07;1.90;;;;;;;;;;5078901;28;19935;-78
2024/03/01 13:12:24;;;;;;;8.05;2.38;;;;;;;;;;5088072;28;20513;-80
2024/03/01 13:15:15;;;;;;;3.55;2.22;;;;;;;;;;5089601;28;20391;-78
2024/03/01 13:18:08;;;;;;;4.18;2.70;;;;;;;;;;5080769;28;20040;-80
2024/03/01 13:20:51;;;;;;;3.90;2.60;;;;;;;;;;5092887;28;20044;-78
2024/03/01 13:24:10;;;;;;;6.07;2.65;;;;;;;;;;5090080;28;20139;-81
2024/03/01 13:26:55;;;;;;;5.22;2.25;;;;;;;;;;5083004;28;20039;-80
2024/03/01 13:29:34;;;;;;;7.22;2.33;;;;;;;;;;5073295;28;20051;-80
2024/03/01 13:32:11;;;;;;;5.32;1.98;;;;;;;;;;5073361;28;20517;-80
2024/03/01 13:34:45;;;;;;;4.72;2.50;;;;;;;;;;5085956;28;20040;-81
2024/03/01 13:37:37;;;;;;;6.10;2.55;;;;;;;;;;5085848;28;20044;-79
2024/03/01 13:40:19;;;;;;;5.00;2.28;;;;;;;;;;5065226;28;20406;-80
2024/03/01 13:43:04;;;;;;;5.13;2.15;;;;;;;;;;5082255;28;20040;-78
2024/03/01 13:45:41;;;;;;;4.72;2.42;;;;;;;;;;5081905;28;20071;-80
2024/03/01 13:48:23;;;;;;;4.32;2.22;;;;;;;;;;5090635;28;20102;-82
2024/03/01 13:50:56;;;;;;;3.72;2.00;;;;;;;;;;5064568;28;20045;-82
2024/03/01 13:53:29;;;;;;;2.65;1.90;;;;;;;;;;5078238;28;20044;-79
2024/03/01 13:56:04;;;;;;;5.47;3.45;;;;;;;;;;5090203;28;20766;-80
2024/03/01 13:58:40;;;;;;;4.55;1.85;;;;;;;;;;5081890;28;20040;-80
2024/03/01 14:01:20;;;;;;;2.95;2.10;;;;;;;;;;5075551;28;20048;-78
2024/03/01 14:03:56;;;;;;;2.08;1.40;;;;;;;;;;5076140;28;20489;-82
2024/03/01 14:06:34;;;;;;;3.20;1.75;;;;;;;;;;5058449;28;20048;-82
2024/03/01 14:09:17;;;;;;;4.82;1.70;;;;;;;;;;5085517;28;20051;-80
2024/03/01 14:11:57;;;;;;;4.43;1.90;;;;;;;;;;5061145;28;20044;-81
2024/03/01 14:14:33;;;;;;;2.88;1.50;;;;;;;;;;5089321;28;20052;-82
2024/03/01 14:17:06;;;;;;;4.07;1.60;;;;;;;;;;5081794;28;20494;-79
2024/03/01 14:19:38;;;;;;;4.38;1.65;;;;;;;;;;5074542;28;20055;-82
2024/03/01 14:22:13;;;;;;;4.35;1.67;;;;;;;;;;5055629;28;20055;-83
2024/03/01 14:28:14;;;;;;;3.33;1.85;;;;;;;;;;5074701;28;20047;-83
2024/03/01 14:30:48;;;;;;;4.50;1.80;;;;;;;;;;5073855;28;20048;-83
2024/03/01 14:33:22;;;;;;;2.72;1.80;;;;;;;;;;5077466;28;20529;-85
2024/03/01 14:36:06;;;;;;;3.45;1.70;;;;;;;;;;5075328;28;20066;-84
2024/03/01 14:38:51;;;;;;;2.75;1.60;;;;;;;;;;5058716;28;20051;-85
2024/03/01 14:41:34;;;;;;;3.20;1.70;;;;;;;;;;5067405;28;20046;-81
2024/03/01 14:44:08;;;;;;;1.90;1.25;;;;;;;;;;5094050;28;20485;-81
2024/03/01 14:46:40;;;;;;;2.67;1.38;;;;;;;;;;5075266;28;20048;-84
2024/03/01 14:49:17;;;;;;;3.20;1.00;;;;;;;;;;5094880;28;20036;-81
2024/03/01 14:51:49;;;;;;;2.45;1.08;;;;;;;;;;5094682;28;20383;-80
2024/03/01 14:54:26;;;;;;;1.58;1.05;;;;;;;;;;5094448;28;20397;-79
2024/03/01 14:56:58;;;;;;;3.40;1.00;;;;;;;;;;5089508;28;20067;-80
2024/03/01 14:59:29;;;;;;;2.33;0.90;;;;;;;;;;5076311;28;20548;-81
2024/03/01 15:02:00;;;;;;;3.78;1.15;;;;;;;;;;5088515;28;20048;-84
2024/03/01 15:04:30;;;;;;;2.30;0.73;;;;;;;;;;5080702;28;20040;-81
2024/03/01 15:07:06;;;;;;;3.00;0.90;;;;;;;;;;5092084;28;20055;-81
2024/03/01 15:09:45;;;;;;;2.90;0.73;;;;;;;;;;5088840;28;20051;-81
2024/03/01 15:12:16;;;;;;;1.52;0.90;;;;;;;;;;5092644;28;20036;-79
2024/03/01 15:14:46;;;;;;;3.83;0.80;;;;;;;;;;5089310;28;20043;-80
2024/03/01 15:17:18;;;;;;;4.20;1.00;;;;;;;;;;5075472;28;20068;-80
2024/03/01 15:19:51;;;;;;;2.58;0.80;;;;;;;;;;5074767;28;20048;-81
2024/03/01 15:22:22;;;;;;;3.22;0.85;;;;;;;;;;5073824;28;20403;-81
2024/03/01 15:25:03;;;;;;;2.47;1.00;;;;;;;;;;5076855;28;20043;-81
2024/03/01 15:27:34;;;;;;;2.58;0.80;;;;;;;;;;5073459;28;20514;-80
2024/03/01 15:30:04;;;;;;;3.42;0.80;;;;;;;;;;5074272;28;20071;-80
2024/03/01 15:32:34;;;;;;;2.30;1.05;;;;;;;;;;5088764;28;20044;-81
2024/03/01 15:35:05;;;;;;;1.20;0.60;;;;;;;;;;5076350;28;20040;-81
2024/03/01 15:37:36;;;;;;;1.77;0.80;;;;;;;;;;5072112;28;20045;-79
2024/03/01 15:40:06;;;;;;;3.65;0.85;;;;;;;;;;5072113;28;20048;-80